createdAt,value
2022-10-11T00:02:19.095Z,101764.63
2022-10-11T00:05:04.832Z,101760.38
2022-10-11T00:07:50.816Z,101770.16
2022-10-11T00:10:36.456Z,101770.28
2022-10-11T00:13:21.883Z,101784.88
2022-10-11T00:16:11.880Z,101782.22
2022-10-11T00:18:59.331Z,101774.72
2022-10-11T00:21:45.390Z,101793.88
2022-10-11T00:24:31.093Z,101770.84
2022-10-11T00:27:16.702Z,101799.22
2022-10-11T00:30:02.264Z,101788.06
2022-10-11T00:32:47.778Z,101795.00
2022-10-11T00:35:33.361Z,101802.03
2022-10-11T00:38:19.017Z,101807.38
2022-10-11T00:41:04.609Z,101798.75
2022-10-11T00:44:19.160Z,101809.06
2022-10-11T00:47:12.426Z,101787.69
2022-10-11T00:50:01.473Z,101811.09
2022-10-11T00:52:55.222Z,101795.69
2022-10-11T00:55:51.039Z,101798.25
2022-10-11T00:58:37.540Z,101811.38
2022-10-11T01:01:23.031Z,101816.06
2022-10-11T01:04:08.789Z,101810.09
2022-10-11T01:06:54.781Z,101813.47
2022-10-11T01:09:40.163Z,101800.34
2022-10-11T01:12:29.864Z,101807.25
2022-10-11T01:15:31.490Z,101807.75
2022-10-11T01:18:28.568Z,101813.53
2022-10-11T01:21:22.842Z,101823.81
2022-10-11T01:24:26.216Z,101829.28
2022-10-11T01:27:49.142Z,101825.94
2022-10-11T01:30:36.485Z,101833.81
2022-10-11T01:33:32.084Z,101842.63
2022-10-11T01:36:37.701Z,101817.44
2022-10-11T01:39:32.176Z,101841.06
2022-10-11T01:42:19.960Z,101838.50
2022-10-11T01:45:09.301Z,101849.91
2022-10-11T01:48:06.612Z,101856.88
2022-10-11T01:50:55.323Z,101856.03
2022-10-11T01:54:11.221Z,101862.09
2022-10-11T01:57:34.248Z,101862.00
2022-10-11T02:00:23.173Z,101860.38
2022-10-11T02:03:28.778Z,101851.47
2022-10-11T02:06:36.639Z,101861.81
2022-10-11T02:09:35.955Z,101861.66
2022-10-11T02:12:31.467Z,101869.63
2022-10-11T02:15:17.274Z,101878.31
2022-10-11T02:18:08.297Z,101867.97
2022-10-11T02:20:57.200Z,101873.38
2022-10-11T02:23:48.171Z,101885.44
2022-10-11T02:26:34.780Z,101880.97
2022-10-11T02:29:24.278Z,101870.69
2022-10-11T02:32:10.946Z,101881.75
2022-10-11T02:34:58.883Z,101885.06
2022-10-11T02:38:05.565Z,101884.41
2022-10-11T02:40:56.697Z,101884.41
2022-10-11T02:43:51.972Z,101884.41
2022-10-11T02:46:38.573Z,101878.38
2022-10-11T02:49:24.009Z,101875.66
2022-10-11T02:52:09.601Z,101883.59
2022-10-11T02:54:54.730Z,101900.00
2022-10-11T02:57:40.208Z,101883.38
2022-10-11T03:00:25.633Z,101892.72
2022-10-11T03:03:10.980Z,101910.84
2022-10-11T03:06:01.896Z,101909.75
2022-10-11T03:08:47.535Z,101895.88
2022-10-11T03:11:33.015Z,101915.69
2022-10-11T03:14:18.598Z,101917.31
2022-10-11T03:17:23.859Z,101907.75
2022-10-11T03:20:09.736Z,101915.53
2022-10-11T03:22:55.780Z,101916.41
2022-10-11T03:25:41.159Z,101917.22
2022-10-11T03:28:27.114Z,101933.69
2022-10-11T03:31:12.525Z,101940.72
2022-10-11T03:33:57.759Z,101935.69
2022-10-11T03:36:43.106Z,101950.56
2022-10-11T03:39:28.612Z,101935.06
2022-10-11T03:42:14.293Z,101940.97
2022-10-11T03:45:04.506Z,101943.66
2022-10-11T03:47:50.157Z,101934.25
2022-10-11T03:50:36.485Z,101940.53
2022-10-11T03:53:22.134Z,101950.31
2022-10-11T03:56:08.788Z,101957.97
2022-10-11T03:58:54.154Z,101962.50
2022-10-11T04:01:39.692Z,101974.88
2022-10-11T04:04:25.076Z,101966.97
2022-10-11T04:07:10.982Z,101980.06
2022-10-11T04:09:56.621Z,101983.59
2022-10-11T04:12:41.936Z,101976.59
2022-10-11T04:15:27.583Z,101967.00
2022-10-11T04:18:13.213Z,101988.56
2022-10-11T04:20:58.609Z,101989.25
2022-10-11T04:23:44.217Z,101994.41
2022-10-11T04:26:29.870Z,102003.03
2022-10-11T04:29:15.626Z,102002.72
2022-10-11T04:32:00.854Z,102001.09
2022-10-11T04:34:46.551Z,102000.19
2022-10-11T04:37:32.015Z,102005.50
2022-10-11T04:40:17.409Z,102011.00
2022-10-11T04:43:02.801Z,102012.66
2022-10-11T04:45:50.340Z,102008.41
2022-10-11T04:48:39.058Z,102012.03
2022-10-11T04:51:25.320Z,102008.09
2022-10-11T04:54:10.895Z,101996.84
2022-10-11T04:56:56.308Z,102013.44
2022-10-11T04:59:43.649Z,102007.41
2022-10-11T05:02:32.115Z,102030.03
2022-10-11T05:05:17.605Z,102030.22
2022-10-11T05:08:03.189Z,102034.72
2022-10-11T05:10:55.771Z,102035.06
2022-10-11T05:13:41.645Z,102041.94
2022-10-11T05:16:27.358Z,102043.78
2022-10-11T05:19:13.223Z,102054.09
2022-10-11T05:21:58.574Z,102044.59
2022-10-11T05:24:44.246Z,102046.47
2022-10-11T05:27:29.480Z,102050.16
2022-10-11T05:30:14.885Z,102059.59
2022-10-11T05:33:00.758Z,102068.25
2022-10-11T05:35:46.130Z,102080.56
2022-10-11T05:38:31.556Z,102083.91
2022-10-11T05:41:17.432Z,102098.56
2022-10-11T05:44:02.862Z,102081.56
2022-10-11T05:46:48.356Z,102098.78
2022-10-11T05:49:33.883Z,102092.75
2022-10-11T05:52:21.487Z,102107.38
2022-10-11T05:55:07.389Z,102110.97
2022-10-11T05:57:54.574Z,102101.31
2022-10-11T06:00:40.688Z,102109.84
2022-10-11T06:03:26.074Z,102114.97
2022-10-11T06:06:11.377Z,102108.00
2022-10-11T06:08:56.551Z,102105.19
2022-10-11T06:11:42.634Z,102123.31
2022-10-11T06:14:28.011Z,102132.72
2022-10-11T06:17:13.625Z,102125.50
2022-10-11T06:19:58.887Z,102133.06
2022-10-11T06:22:44.310Z,102119.75
2022-10-11T06:25:29.758Z,102127.34
2022-10-11T06:28:15.340Z,102126.16
2022-10-11T06:31:02.646Z,102139.56
2022-10-11T06:33:48.007Z,102138.38
2022-10-11T06:36:33.573Z,102145.97
2022-10-11T06:39:18.837Z,102141.34
2022-10-11T06:42:04.381Z,102134.66
2022-10-11T06:44:49.700Z,102148.41
2022-10-11T06:47:35.018Z,102150.13
2022-10-11T06:50:40.754Z,102159.63
2022-10-11T06:53:26.664Z,102161.44
2022-10-11T06:56:12.824Z,102159.53
2022-10-11T06:58:59.373Z,102145.50
2022-10-11T07:01:45.068Z,102156.63
2022-10-11T07:04:30.484Z,102151.38
2022-10-11T07:07:16.071Z,102155.34
2022-10-11T07:10:01.606Z,102156.38
2022-10-11T07:12:47.328Z,102164.84
2022-10-11T07:15:38.089Z,102151.59
2022-10-11T07:18:23.765Z,102162.38
2022-10-11T07:21:12.356Z,102174.13
2022-10-11T07:23:58.064Z,102177.31
2022-10-11T07:26:43.651Z,102177.78
2022-10-11T07:29:29.181Z,102170.63
2022-10-11T07:32:16.403Z,102174.09
2022-10-11T07:35:01.991Z,102161.13
2022-10-11T07:37:47.738Z,102176.69
2022-10-11T07:40:40.249Z,102188.06
2022-10-11T07:43:25.756Z,102179.13
2022-10-11T07:46:11.255Z,102180.25
2022-10-11T07:48:56.708Z,102188.53
2022-10-11T07:51:42.363Z,102192.50
2022-10-11T07:54:27.726Z,102202.03
2022-10-11T07:57:13.118Z,102191.69
2022-10-11T07:59:58.576Z,102187.69
2022-10-11T08:02:44.007Z,102207.41
2022-10-11T08:05:29.733Z,102193.66
2022-10-11T08:08:15.276Z,102214.06
2022-10-11T08:11:00.943Z,102207.06
2022-10-11T08:13:46.317Z,102222.97
2022-10-11T08:16:31.971Z,102214.97
2022-10-11T08:19:18.527Z,102215.06
2022-10-11T08:22:04.359Z,102194.53
2022-10-11T08:24:49.522Z,102214.75
2022-10-11T08:27:34.845Z,102204.09
2022-10-11T08:30:20.408Z,102217.09
2022-10-11T08:33:08.716Z,102210.34
2022-10-11T08:35:55.540Z,102201.63
2022-10-11T08:38:42.650Z,102207.00
2022-10-11T08:41:46.369Z,102204.63
2022-10-11T08:45:05.888Z,102202.78
2022-10-11T08:47:46.182Z,102206.72
2022-10-11T08:50:35.256Z,102201.13
2022-10-11T08:53:39.743Z,102198.56
2022-10-11T08:56:26.988Z,102198.44
2022-10-11T08:59:12.809Z,102212.94
2022-10-11T09:03:02.941Z,102201.47
2022-10-11T09:06:07.397Z,102193.38
2022-10-11T09:09:02.595Z,102218.34
2022-10-11T09:12:06.389Z,102209.50
2022-10-11T09:15:04.211Z,102220.38
2022-10-11T09:18:03.607Z,102206.38
2022-10-11T09:21:08.993Z,102192.88
2022-10-11T09:24:09.415Z,102213.78
2022-10-11T09:27:02.815Z,102220.38
2022-10-11T09:29:57.721Z,102226.09
2022-10-11T09:32:48.464Z,102213.72
2022-10-11T09:35:40.825Z,102204.63
2022-10-11T09:38:48.378Z,102219.41
2022-10-11T09:41:47.354Z,102207.09
2022-10-11T09:44:37.655Z,102203.53
2022-10-11T09:47:26.924Z,102202.22
2022-10-11T09:50:29.666Z,102208.38
2022-10-11T09:53:16.065Z,102208.19
2022-10-11T09:56:04.359Z,102210.56
2022-10-11T09:59:05.886Z,102203.47
2022-10-11T10:02:12.694Z,102212.06
2022-10-11T10:05:07.214Z,102205.66
2022-10-11T10:08:11.312Z,102217.25
2022-10-11T10:10:59.503Z,102219.81
2022-10-11T10:13:54.440Z,102213.16
2022-10-11T10:16:40.607Z,102210.25
2022-10-11T10:19:26.138Z,102219.66
2022-10-11T10:22:21.175Z,102228.44
2022-10-11T10:25:08.149Z,102208.22
2022-10-11T10:27:59.978Z,102218.94
2022-10-11T10:30:59.006Z,102226.66
2022-10-11T10:33:46.735Z,102217.63
2022-10-11T10:36:39.516Z,102225.16
2022-10-11T10:39:39.526Z,102223.78
2022-10-11T10:42:25.353Z,102227.00
2022-10-11T10:45:20.808Z,102228.56
2022-10-11T10:48:15.302Z,102215.97
2022-10-11T10:51:28.930Z,102233.47
2022-10-11T10:54:30.527Z,102230.16
2022-10-11T10:57:49.338Z,102225.16
2022-10-11T11:00:42.719Z,102219.16
2022-10-11T11:03:52.922Z,102220.16
2022-10-11T11:06:57.714Z,102230.44
2022-10-11T11:10:03.642Z,102222.91
2022-10-11T11:13:18.377Z,102222.25
2022-10-11T11:16:18.227Z,102226.50
2022-10-11T11:19:23.010Z,102225.84
2022-10-11T11:22:32.615Z,102221.16
2022-10-11T11:25:47.101Z,102216.88
2022-10-11T11:28:33.109Z,102225.66
2022-10-11T11:31:18.939Z,102215.50
2022-10-11T11:34:26.384Z,102212.28
2022-10-11T11:37:33.385Z,102207.91
2022-10-11T11:40:35.249Z,102206.69
2022-10-11T11:43:28.397Z,102223.16
2022-10-11T11:46:22.296Z,102209.06
2022-10-11T11:49:18.093Z,102217.56
2022-10-11T11:52:07.220Z,102218.50
2022-10-11T11:55:10.353Z,102220.97
2022-10-11T11:58:11.277Z,102216.97
2022-10-11T12:01:15.314Z,102214.84
2022-10-11T12:04:09.423Z,102214.78
2022-10-11T12:07:17.884Z,102198.19
2022-10-11T12:10:24.966Z,102200.69
2022-10-11T12:13:33.268Z,102202.41
2022-10-11T12:16:19.982Z,102199.53
2022-10-11T12:19:06.392Z,102207.06
2022-10-11T12:22:20.596Z,102202.09
2022-10-11T12:25:09.977Z,102211.22
2022-10-11T12:27:58.715Z,102180.47
2022-10-11T12:30:44.938Z,102218.91
2022-10-11T12:33:33.093Z,102219.63
2022-10-11T12:36:45.910Z,102220.06
2022-10-11T12:39:46.734Z,102217.47
2022-10-11T12:42:35.552Z,102214.53
2022-10-11T12:45:21.446Z,102221.88
2022-10-11T12:48:30.131Z,102226.81
2022-10-11T12:51:34.052Z,102221.69
2022-10-11T12:54:40.258Z,102223.50
2022-10-11T12:57:56.731Z,102225.38
2022-10-11T13:00:51.925Z,102218.41
2022-10-11T13:03:52.907Z,102219.00
2022-10-11T13:06:54.860Z,102224.13
2022-10-11T13:09:48.794Z,102218.00
2022-10-11T13:12:43.688Z,102212.69
2022-10-11T13:15:30.330Z,102210.91
2022-10-11T13:18:18.453Z,102216.88
2022-10-11T13:21:24.182Z,102210.47
2022-10-11T13:24:15.064Z,102202.16
2022-10-11T13:27:02.166Z,102202.97
2022-10-11T13:29:50.800Z,102219.06
2022-10-11T13:32:37.010Z,102190.94
2022-10-11T13:35:31.934Z,102203.88
2022-10-11T13:38:26.312Z,102211.34
2022-10-11T13:41:12.484Z,102198.94
2022-10-11T13:44:00.612Z,102204.09
2022-10-11T13:46:47.110Z,102204.00
2022-10-11T13:49:38.451Z,102196.28
2022-10-11T13:52:24.889Z,102202.38
2022-10-11T13:55:24.033Z,102214.81
2022-10-11T13:58:34.222Z,102206.78
2022-10-11T14:01:22.973Z,102201.75
2022-10-11T14:04:11.868Z,102192.00
2022-10-11T14:07:17.084Z,102195.81
2022-10-11T14:10:04.842Z,102197.25
2022-10-11T14:13:04.122Z,102209.44
2022-10-11T14:16:02.640Z,102199.75
2022-10-11T14:19:02.539Z,102210.56
2022-10-11T14:21:51.900Z,102203.56
2022-10-11T14:24:37.888Z,102197.41
2022-10-11T14:27:27.646Z,102206.94
2022-10-11T14:30:27.633Z,102195.06
2022-10-11T14:33:13.777Z,102196.31
2022-10-11T14:35:59.949Z,102208.72
2022-10-11T14:38:45.885Z,102196.97
2022-10-11T14:41:32.177Z,102210.03
2022-10-11T14:44:19.289Z,102199.66
2022-10-11T14:47:07.150Z,102196.41
2022-10-11T14:49:53.579Z,102199.97
2022-10-11T14:52:39.545Z,102189.19
2022-10-11T14:55:25.383Z,102207.91
2022-10-11T14:58:14.250Z,102214.38
2022-10-11T15:01:01.345Z,102214.16
2022-10-11T15:03:46.691Z,102222.31
2022-10-11T15:06:38.033Z,102224.38
2022-10-11T15:09:24.377Z,102214.38
2022-10-11T15:12:10.880Z,102221.09
2022-10-11T15:14:56.226Z,102217.88
2022-10-11T15:17:42.358Z,102220.25
2022-10-11T15:20:35.574Z,102224.97
2022-10-11T15:23:21.359Z,102217.56
2022-10-11T15:26:09.510Z,102208.13
2022-10-11T15:28:57.307Z,102219.69
2022-10-11T15:31:45.239Z,102223.13
2022-10-11T15:34:31.134Z,102216.19
2022-10-11T15:37:17.369Z,102220.38
2022-10-11T15:40:14.954Z,102207.69
2022-10-11T15:43:01.115Z,102221.19
2022-10-11T15:45:46.924Z,102221.03
2022-10-11T15:48:33.065Z,102227.38
2022-10-11T15:51:18.935Z,102225.69
2022-10-11T15:54:04.389Z,102217.97
2022-10-11T15:56:49.746Z,102208.91
2022-10-11T15:59:36.991Z,102218.09
2022-10-11T16:02:22.582Z,102219.00
2022-10-11T16:05:08.280Z,102215.31
2022-10-11T16:07:54.994Z,102228.53
2022-10-11T16:10:41.927Z,102220.78
2022-10-11T16:13:28.070Z,102231.13
2022-10-11T16:16:14.705Z,102231.31
2022-10-11T16:19:00.020Z,102233.41
2022-10-11T16:21:45.428Z,102234.91
2022-10-11T16:24:31.219Z,102240.03
2022-10-11T16:27:18.975Z,102235.00
2022-10-11T16:30:05.861Z,102242.19
2022-10-11T16:32:51.593Z,102246.06
2022-10-11T16:35:41.568Z,102248.53
2022-10-11T16:38:28.017Z,102245.59
2022-10-11T16:41:14.025Z,102242.53
2022-10-11T16:44:00.349Z,102256.25
2022-10-11T16:46:50.256Z,102258.81
2022-10-11T16:49:36.165Z,102263.22
2022-10-11T16:52:21.778Z,102246.91
2022-10-11T16:55:08.555Z,102256.72
2022-10-11T16:57:54.459Z,102241.06
2022-10-11T17:00:42.565Z,102222.03
2022-10-11T17:03:29.492Z,102247.72
2022-10-11T17:06:16.060Z,102253.44
2022-10-11T17:09:02.093Z,102248.28
2022-10-11T17:11:47.905Z,102243.19
2022-10-11T17:14:36.299Z,102247.56
2022-10-11T17:17:21.914Z,102236.59
2022-10-11T17:20:10.737Z,102252.13
2022-10-11T17:22:56.625Z,102252.47
2022-10-11T17:25:47.428Z,102254.06
2022-10-11T17:28:37.804Z,102256.28
2022-10-11T17:31:25.490Z,102252.16
2022-10-11T17:34:14.334Z,102251.56
2022-10-11T17:37:00.044Z,102257.13
2022-10-11T17:39:46.129Z,102231.69
2022-10-11T17:42:32.090Z,102249.84
2022-10-11T17:45:18.986Z,102248.66
2022-10-11T17:48:04.678Z,102250.13
2022-10-11T17:50:51.312Z,102242.06
2022-10-11T17:53:37.739Z,102257.66
2022-10-11T17:56:29.558Z,102249.94
2022-10-11T17:59:22.510Z,102252.88
2022-10-11T18:02:10.318Z,102256.66
2022-10-11T18:04:56.002Z,102244.75
2022-10-11T18:07:41.710Z,102249.66
2022-10-11T18:10:27.446Z,102249.63
2022-10-11T18:13:15.326Z,102249.31
2022-10-11T18:16:01.348Z,102257.03
2022-10-11T18:18:46.898Z,102237.59
2022-10-11T18:21:34.700Z,102260.16
2022-10-11T18:24:20.384Z,102249.03
2022-10-11T18:27:05.796Z,102258.72
2022-10-11T18:29:51.428Z,102237.94
2022-10-11T18:32:37.459Z,102238.31
2022-10-11T18:35:23.143Z,102248.69
2022-10-11T18:38:09.253Z,102264.75
2022-10-11T18:40:55.198Z,102241.25
2022-10-11T18:43:41.544Z,102245.75
2022-10-11T18:46:27.693Z,102258.88
2022-10-11T18:49:14.457Z,102242.81
2022-10-11T18:52:00.517Z,102240.25
2022-10-11T18:54:45.963Z,102248.63
2022-10-11T18:57:31.464Z,102248.41
2022-10-11T19:00:39.556Z,102219.44
2022-10-11T19:03:22.484Z,102226.84
2022-10-11T19:06:17.410Z,102235.59
2022-10-11T19:09:06.722Z,102241.13
2022-10-11T19:11:55.102Z,102250.25
2022-10-11T19:14:41.098Z,102252.25
2022-10-11T19:17:26.992Z,102234.47
2022-10-11T19:20:12.906Z,102240.94
2022-10-11T19:22:58.455Z,102236.22
2022-10-11T19:25:44.262Z,102254.63
2022-10-11T19:28:30.591Z,102232.22
2022-10-11T19:31:16.974Z,102254.28
2022-10-11T19:34:02.871Z,102265.75
2022-10-11T19:36:50.725Z,102258.84
2022-10-11T19:39:36.489Z,102240.31
2022-10-11T19:42:23.204Z,102245.59
2022-10-11T19:45:09.250Z,102246.31
2022-10-11T19:47:55.816Z,102232.78
2022-10-11T19:50:41.289Z,102241.88
2022-10-11T19:53:27.717Z,102249.63
2022-10-11T19:56:16.130Z,102258.41
2022-10-11T19:59:02.949Z,102244.56
2022-10-11T20:01:52.771Z,102240.13
2022-10-11T20:04:54.233Z,102243.00
2022-10-11T20:07:39.836Z,102241.69
2022-10-11T20:10:25.647Z,102259.22
2022-10-11T20:13:11.969Z,102242.63
2022-10-11T20:16:07.406Z,102259.75
2022-10-11T20:18:55.017Z,102236.97
2022-10-11T20:21:41.853Z,102259.16
2022-10-11T20:24:32.143Z,102248.75
2022-10-11T20:27:17.934Z,102252.81
2022-10-11T20:30:04.970Z,102247.69
2022-10-11T20:32:50.351Z,102247.31
2022-10-11T20:35:35.922Z,102242.88
2022-10-11T20:38:22.410Z,102250.13
2022-10-11T20:41:09.831Z,102237.09
2022-10-11T20:44:00.016Z,102251.56
2022-10-11T20:46:45.678Z,102243.31
2022-10-11T20:49:31.972Z,102253.91
2022-10-11T20:52:17.471Z,102249.31
2022-10-11T20:55:04.908Z,102250.47
2022-10-11T20:57:50.552Z,102251.56
2022-10-11T21:00:38.462Z,102242.88
2022-10-11T21:03:23.885Z,102250.56
2022-10-11T21:06:10.640Z,102255.88
2022-10-11T21:08:56.812Z,102239.41
2022-10-11T21:11:42.179Z,102245.50
2022-10-11T21:14:27.706Z,102241.06
2022-10-11T21:17:12.916Z,102238.13
2022-10-11T21:20:01.058Z,102242.75
2022-10-11T21:22:46.531Z,102250.25
2022-10-11T21:25:35.905Z,102254.25
2022-10-11T21:28:21.424Z,102249.19
2022-10-11T21:31:11.924Z,102255.88
2022-10-11T21:33:57.661Z,102259.16
2022-10-11T21:36:43.589Z,102246.50
2022-10-11T21:39:29.084Z,102253.44
2022-10-11T21:42:16.346Z,102243.00
2022-10-11T21:45:02.038Z,102248.44
2022-10-11T21:47:47.614Z,102257.16
2022-10-11T21:50:33.217Z,102258.72
2022-10-11T21:53:18.443Z,102255.88
2022-10-11T21:56:04.057Z,102268.22
2022-10-11T21:58:50.536Z,102249.88
2022-10-11T22:01:36.809Z,102253.75
2022-10-11T22:04:23.657Z,102267.94
2022-10-11T22:07:09.039Z,102256.72
2022-10-11T22:09:54.979Z,102259.66
2022-10-11T22:12:40.771Z,102255.09
2022-10-11T22:15:26.370Z,102256.06
2022-10-11T22:18:13.319Z,102244.09
2022-10-11T22:21:14.128Z,102263.31
2022-10-11T22:24:00.015Z,102257.25
2022-10-11T22:26:46.131Z,102265.84
2022-10-11T22:29:34.406Z,102235.75
2022-10-11T22:32:20.389Z,102227.41
2022-10-11T22:35:06.053Z,102251.66
2022-10-11T22:37:52.112Z,102260.41
2022-10-11T22:40:39.806Z,102265.63
2022-10-11T22:43:26.410Z,102271.53
2022-10-11T22:46:11.913Z,102272.34
2022-10-11T22:48:57.622Z,102259.31
2022-10-11T22:51:44.320Z,102247.53
2022-10-11T22:54:31.055Z,102236.84
2022-10-11T22:57:16.672Z,102280.09
2022-10-11T23:00:02.162Z,102247.53
2022-10-11T23:02:48.792Z,102271.41
2022-10-11T23:05:35.483Z,102269.34
2022-10-11T23:08:22.073Z,102265.56
2022-10-11T23:11:08.172Z,102261.25
2022-10-11T23:13:54.422Z,102252.53
2022-10-11T23:16:40.261Z,102274.34
2022-10-11T23:19:26.264Z,102272.81
2022-10-11T23:22:13.020Z,102250.38
2022-10-11T23:24:58.562Z,102269.06
2022-10-11T23:27:44.597Z,102263.81
2022-10-11T23:30:32.890Z,102270.00
2022-10-11T23:33:18.538Z,102259.66
2022-10-11T23:36:05.025Z,102273.22
2022-10-11T23:38:56.153Z,102277.84
2022-10-11T23:41:43.463Z,102279.72
2022-10-11T23:44:29.167Z,102275.63
2022-10-11T23:47:16.260Z,102276.50
2022-10-11T23:50:01.792Z,102281.69
2022-10-11T23:52:49.171Z,102277.34
2022-10-11T23:55:34.550Z,102280.22
2022-10-11T23:58:20.609Z,102288.75
